createdAt,value
2019-04-01T00:00:33.425Z,6.67
2019-04-01T00:03:02.299Z,9.05
2019-04-01T00:05:31.186Z,12.15
2019-04-01T00:08:00.212Z,8.58
2019-04-01T00:10:29.081Z,7.70
2019-04-01T00:12:57.956Z,7.45
2019-04-01T00:15:26.863Z,7.78
2019-04-01T00:17:55.755Z,12.68
2019-04-01T00:20:24.633Z,8.85
2019-04-01T00:22:53.913Z,10.70
2019-04-01T00:25:22.841Z,10.75
2019-04-01T00:27:51.764Z,6.28
2019-04-01T00:30:20.654Z,15.58
2019-04-01T00:32:50.089Z,9.63
2019-04-01T00:35:18.977Z,11.70
2019-04-01T00:37:48.100Z,8.05
2019-04-01T00:40:17.288Z,15.63
2019-04-01T00:42:50.858Z,6.80
2019-04-01T00:45:27.203Z,8.75
2019-04-01T00:47:56.286Z,5.42
2019-04-01T00:50:25.171Z,4.03
2019-04-01T00:52:54.088Z,5.30
2019-04-01T00:55:23.024Z,6.87
2019-04-01T00:57:51.963Z,6.75
2019-04-01T01:00:21.513Z,7.20
2019-04-01T01:02:50.399Z,13.20
2019-04-01T01:05:19.317Z,4.50
2019-04-01T01:07:48.283Z,7.17
2019-04-01T01:10:17.246Z,6.08
2019-04-01T01:12:46.181Z,7.60
2019-04-01T01:15:15.241Z,10.80
2019-04-01T01:17:44.179Z,8.93
2019-04-01T01:20:13.305Z,12.65
2019-04-01T01:22:42.172Z,8.53
2019-04-01T01:25:11.062Z,5.67
2019-04-01T01:27:40.323Z,12.93
2019-04-01T01:30:09.698Z,8.40
2019-04-01T01:32:38.569Z,4.97
2019-04-01T01:35:08.171Z,8.40
2019-04-01T01:37:37.062Z,8.93
2019-04-01T01:40:05.924Z,7.35
2019-04-01T01:42:34.842Z,10.65
2019-04-01T01:45:04.022Z,6.83
2019-04-01T01:47:33.047Z,10.43
2019-04-01T01:50:01.990Z,8.63
2019-04-01T01:52:31.077Z,8.40
2019-04-01T01:55:00.502Z,11.60
2019-04-01T01:57:29.995Z,12.43
2019-04-01T02:00:01.437Z,9.93
2019-04-01T02:02:30.317Z,12.82
2019-04-01T02:04:59.236Z,15.43
2019-04-01T02:07:32.488Z,10.68
2019-04-01T02:10:03.405Z,9.83
2019-04-01T02:12:32.293Z,11.40
2019-04-01T02:15:01.168Z,11.90
2019-04-01T02:17:30.214Z,12.37
2019-04-01T02:19:59.095Z,9.88
2019-04-01T02:22:27.966Z,7.60
2019-04-01T02:24:56.905Z,10.93
2019-04-01T02:27:25.846Z,8.58
2019-04-01T02:29:55.039Z,7.60
2019-04-01T02:32:24.278Z,7.78
2019-04-01T02:34:53.337Z,5.90
2019-04-01T02:37:22.487Z,10.40
2019-04-01T02:39:51.389Z,10.18
2019-04-01T02:42:20.237Z,10.90
2019-04-01T02:44:49.146Z,13.72
2019-04-01T02:47:18.162Z,10.08
2019-04-01T02:49:47.030Z,10.65
2019-04-01T02:52:15.962Z,11.48
2019-04-01T02:54:44.853Z,10.30
2019-04-01T02:57:14.191Z,12.28
2019-04-01T02:59:43.241Z,12.03
2019-04-01T03:02:12.107Z,7.80
2019-04-01T03:04:40.975Z,10.28
2019-04-01T03:07:10.134Z,11.97
2019-04-01T03:09:38.993Z,11.25
2019-04-01T03:12:07.894Z,10.85
2019-04-01T03:14:36.833Z,11.08
2019-04-01T03:17:05.915Z,13.78
2019-04-01T03:19:34.911Z,14.10
2019-04-01T03:22:04.208Z,9.95
2019-04-01T03:24:33.335Z,11.00
2019-04-01T03:27:02.400Z,11.60
2019-04-01T03:29:31.322Z,8.18
2019-04-01T03:32:00.182Z,10.25
2019-04-01T03:34:29.069Z,10.65
2019-04-01T03:36:58.116Z,14.60
2019-04-01T03:39:26.998Z,15.60
2019-04-01T03:41:55.860Z,6.12
2019-04-01T03:44:24.790Z,15.72
2019-04-01T03:46:53.864Z,8.35
2019-04-01T03:49:22.755Z,14.18
2019-04-01T03:51:52.238Z,8.95
2019-04-01T03:54:21.113Z,6.45
2019-04-01T03:56:50.001Z,7.25
2019-04-01T03:59:18.919Z,5.92
2019-04-01T04:01:47.818Z,11.70
2019-04-01T04:04:16.686Z,11.08
2019-04-01T04:06:45.796Z,12.53
2019-04-01T04:09:14.690Z,12.05
2019-04-01T04:11:43.575Z,10.20
2019-04-01T04:14:12.505Z,11.45
2019-04-01T04:16:41.388Z,11.10
2019-04-01T04:19:10.289Z,8.35
2019-04-01T04:21:39.197Z,9.70
2019-04-01T04:24:08.081Z,10.50
2019-04-01T04:26:37.130Z,8.18
2019-04-01T04:29:06.157Z,11.90
2019-04-01T04:31:35.029Z,10.15
2019-04-01T04:34:03.910Z,19.95
2019-04-01T04:36:32.830Z,13.40
2019-04-01T04:39:01.775Z,13.20
2019-04-01T04:41:30.676Z,8.10
2019-04-01T04:43:59.628Z,6.30
2019-04-01T04:46:28.554Z,10.28
2019-04-01T04:48:59.498Z,9.15
2019-04-01T04:51:28.375Z,12.75
2019-04-01T04:53:57.295Z,7.58
2019-04-01T04:56:26.168Z,12.50
2019-04-01T04:58:55.154Z,12.98
2019-04-01T05:01:24.316Z,11.38
2019-04-01T05:03:53.215Z,9.03
2019-04-01T05:06:22.087Z,8.75
2019-04-01T05:08:51.199Z,7.05
2019-04-01T05:11:20.056Z,11.80
2019-04-01T05:13:49.224Z,8.00
2019-04-01T05:16:18.139Z,10.05
2019-04-01T05:18:47.124Z,12.05
2019-04-01T05:21:17.500Z,9.25
2019-04-01T05:23:47.487Z,9.50
2019-04-01T05:26:17.900Z,10.28
2019-04-01T05:28:48.981Z,6.53
2019-04-01T05:31:22.074Z,20.97
2019-04-01T05:33:55.630Z,15.83
2019-04-01T05:36:25.828Z,17.92
2019-04-01T05:38:55.530Z,12.33
2019-04-01T05:41:24.490Z,15.13
2019-04-01T05:43:54.577Z,17.27
2019-04-01T05:46:26.025Z,10.20
2019-04-01T05:48:55.135Z,13.25
2019-04-01T05:51:24.343Z,16.85
2019-04-01T05:53:53.321Z,10.80
2019-04-01T05:56:23.046Z,12.98
2019-04-01T05:58:51.988Z,13.98
2019-04-01T06:01:22.447Z,18.07
2019-04-01T06:03:51.359Z,13.10
2019-04-01T06:06:23.067Z,14.23
2019-04-01T06:08:51.951Z,12.30
2019-04-01T06:11:21.270Z,14.33
2019-04-01T06:13:50.251Z,8.90
2019-04-01T06:16:19.140Z,14.28
2019-04-01T06:18:48.657Z,16.23
2019-04-01T06:21:17.928Z,11.97
2019-04-01T06:23:46.791Z,11.75
2019-04-01T06:26:15.713Z,14.10
2019-04-01T06:28:44.841Z,15.58
2019-04-01T06:31:13.804Z,14.47
2019-04-01T06:33:42.822Z,10.32
2019-04-01T06:36:12.285Z,14.13
2019-04-01T06:38:41.294Z,10.70
2019-04-01T06:41:10.329Z,13.70
2019-04-01T06:43:39.217Z,15.38
2019-04-01T06:46:08.078Z,15.80
2019-04-01T06:48:37.133Z,14.87
2019-04-01T06:51:06.141Z,19.25
2019-04-01T06:53:35.472Z,15.83
2019-04-01T06:56:04.983Z,14.18
2019-04-01T06:58:36.130Z,17.60
2019-04-01T07:01:05.012Z,13.40
2019-04-01T07:03:33.993Z,17.85
2019-04-01T07:06:03.247Z,19.12
2019-04-01T07:08:32.508Z,18.85
2019-04-01T07:11:01.484Z,18.92
2019-04-01T07:13:30.750Z,16.05
2019-04-01T07:16:14.326Z,19.57
2019-04-01T07:18:30.242Z,21.52
2019-04-01T07:20:59.193Z,18.70
2019-04-01T07:23:28.028Z,19.17
2019-04-01T07:25:57.111Z,17.30
2019-04-01T07:28:26.180Z,23.18
2019-04-01T07:30:55.052Z,20.62
2019-04-01T07:33:23.985Z,18.12
2019-04-01T07:35:52.893Z,21.48
2019-04-01T07:38:22.117Z,17.00
2019-04-01T07:40:51.087Z,19.23
2019-04-01T07:43:20.178Z,16.45
2019-04-01T07:45:49.086Z,23.87
2019-04-01T07:48:18.282Z,14.90
2019-04-01T07:50:47.570Z,19.12
2019-04-01T07:53:16.502Z,21.65
2019-04-01T07:55:45.383Z,14.45
2019-04-01T07:58:14.579Z,20.62
2019-04-01T08:00:43.639Z,17.25
2019-04-01T08:03:12.532Z,20.82
2019-04-01T08:05:41.453Z,15.13
2019-04-01T08:08:10.934Z,18.80
2019-04-01T08:10:39.806Z,19.55
2019-04-01T08:13:08.715Z,19.65
2019-04-01T08:15:37.596Z,14.98
2019-04-01T08:18:06.681Z,14.53
2019-04-01T08:20:35.697Z,15.20
2019-04-01T08:23:04.642Z,13.22
2019-04-01T08:25:33.495Z,21.48
2019-04-01T08:28:02.753Z,12.90
2019-04-01T08:30:31.821Z,12.45
2019-04-01T08:33:00.792Z,10.80
2019-04-01T08:35:30.148Z,18.75
2019-04-01T08:37:59.288Z,16.65
2019-04-01T08:40:28.180Z,17.15
2019-04-01T08:42:57.119Z,16.70
2019-04-01T08:45:29.015Z,23.22
2019-04-01T08:47:58.018Z,18.67
2019-04-01T08:50:27.134Z,14.73
2019-04-01T08:52:56.116Z,11.45
2019-04-01T08:55:25.169Z,13.80
2019-04-01T08:57:54.643Z,15.78
2019-04-01T09:00:23.579Z,12.95
2019-04-01T09:02:52.452Z,12.55
2019-04-01T09:05:21.354Z,13.35
2019-04-01T09:07:51.458Z,9.75
2019-04-01T09:10:20.448Z,13.38
2019-04-01T09:12:49.760Z,10.48
2019-04-01T09:15:21.814Z,11.97
2019-04-01T09:17:51.523Z,15.13
2019-04-01T09:20:20.434Z,12.68
2019-04-01T09:22:49.504Z,10.32
2019-04-01T09:25:18.719Z,13.25
2019-04-01T09:27:47.807Z,12.78
2019-04-01T09:30:18.744Z,13.90
2019-04-01T09:32:47.652Z,9.08
2019-04-01T09:35:16.519Z,16.70
2019-04-01T09:37:45.707Z,10.75
2019-04-01T09:40:15.857Z,14.15
2019-04-01T09:42:44.835Z,11.08
2019-04-01T09:45:13.938Z,12.35
2019-04-01T09:47:42.885Z,11.85
2019-04-01T09:50:12.046Z,12.35
2019-04-01T09:52:40.978Z,15.23
2019-04-01T09:55:10.213Z,12.07
2019-04-01T09:57:39.148Z,16.50
2019-04-01T10:00:10.926Z,10.03
2019-04-01T10:02:39.794Z,11.45
2019-04-01T10:05:09.145Z,26.68
2019-04-01T10:07:38.259Z,13.53
2019-04-01T10:10:07.370Z,13.25
2019-04-01T10:12:36.245Z,12.60
2019-04-01T10:15:09.848Z,13.90
2019-04-01T10:17:38.735Z,10.63
2019-04-01T10:20:08.920Z,13.35
2019-04-01T10:22:37.862Z,12.37
2019-04-01T10:25:06.922Z,11.35
2019-04-01T10:27:36.408Z,14.23
2019-04-01T10:30:07.953Z,8.00
2019-04-01T10:32:36.869Z,9.80
2019-04-01T10:35:07.813Z,13.45
2019-04-01T10:37:36.752Z,14.50
2019-04-01T10:40:07.631Z,10.68
2019-04-01T10:42:36.702Z,9.65
2019-04-01T10:45:07.815Z,19.10
2019-04-01T10:47:36.729Z,13.75
2019-04-01T10:50:07.599Z,16.15
2019-04-01T10:52:36.596Z,13.50
2019-04-01T10:55:08.160Z,15.83
2019-04-01T10:57:37.199Z,14.85
2019-04-01T11:00:09.103Z,13.48
2019-04-01T11:02:38.004Z,11.15
2019-04-01T11:05:08.194Z,14.35
2019-04-01T11:07:37.113Z,15.48
2019-04-01T11:10:11.400Z,13.93
2019-04-01T11:12:39.732Z,12.73
2019-04-01T11:15:10.138Z,9.85
2019-04-01T11:17:39.055Z,12.80
2019-04-01T11:20:08.538Z,12.10
2019-04-01T11:22:37.554Z,12.70
2019-04-01T11:25:08.525Z,14.93
2019-04-01T11:27:37.409Z,14.83
2019-04-01T11:30:08.366Z,10.55
2019-04-01T11:32:37.344Z,14.58
2019-04-01T11:35:07.598Z,12.65
2019-04-01T11:37:37.191Z,13.38
2019-04-01T11:40:10.955Z,14.10
2019-04-01T11:42:40.323Z,13.85
2019-04-01T11:45:09.610Z,16.50
2019-04-01T11:47:38.957Z,14.50
2019-04-01T11:50:08.121Z,17.45
2019-04-01T11:52:38.083Z,10.70
2019-04-01T11:55:08.913Z,8.45
2019-04-01T11:57:38.108Z,14.07
2019-04-01T12:00:12.805Z,10.70
2019-04-01T12:02:42.030Z,12.98
2019-04-01T12:05:11.126Z,13.10
2019-04-01T12:07:40.326Z,9.98
2019-04-01T12:10:09.620Z,10.20
2019-04-01T12:12:38.740Z,12.20
2019-04-01T12:15:11.634Z,11.48
2019-04-01T12:17:41.655Z,12.28
2019-04-01T12:20:09.614Z,12.63
2019-04-01T12:22:40.604Z,10.40
2019-04-01T12:25:09.653Z,11.68
2019-04-01T12:27:38.775Z,12.45
2019-04-01T12:30:08.167Z,14.45
2019-04-01T12:32:37.055Z,13.28
2019-04-01T12:35:06.980Z,14.68
2019-04-01T12:37:35.872Z,12.20
2019-04-01T12:40:06.653Z,22.00
2019-04-01T12:42:35.589Z,21.05
2019-04-01T12:45:06.779Z,11.35
2019-04-01T12:47:35.750Z,12.88
2019-04-01T12:50:05.787Z,10.72
2019-04-01T12:52:34.688Z,11.15
2019-04-01T12:55:04.355Z,15.53
2019-04-01T12:57:33.310Z,16.50
2019-04-01T13:00:02.247Z,18.57
2019-04-01T13:02:31.142Z,20.17
2019-04-01T13:05:00.063Z,13.20
2019-04-01T13:07:28.932Z,14.65
2019-04-01T13:09:57.820Z,16.32
2019-04-01T13:12:28.344Z,21.20
2019-04-01T13:14:57.227Z,18.48
2019-04-01T13:17:26.150Z,20.95
2019-04-01T13:19:55.023Z,19.20
2019-04-01T13:22:23.901Z,10.23
2019-04-01T13:24:52.840Z,15.38
2019-04-01T13:27:21.731Z,15.28
2019-04-01T13:29:50.670Z,18.52
2019-04-01T13:32:20.308Z,18.85
2019-04-01T13:34:49.600Z,18.92
2019-04-01T13:37:18.693Z,22.20
2019-04-01T13:39:47.558Z,16.20
2019-04-01T13:42:17.680Z,19.62
2019-04-01T13:44:46.571Z,17.45
2019-04-01T13:47:15.457Z,22.20
2019-04-01T13:49:44.444Z,21.48
2019-04-01T13:52:13.307Z,18.60
2019-04-01T13:54:42.190Z,16.93
2019-04-01T13:57:11.192Z,18.62
2019-04-01T13:59:49.242Z,23.52
2019-04-01T14:02:10.655Z,16.02
2019-04-01T14:04:39.574Z,15.10
2019-04-01T14:07:08.707Z,21.85
2019-04-01T14:09:37.626Z,24.82
2019-04-01T14:12:06.647Z,12.90
2019-04-01T14:14:35.588Z,21.70
2019-04-01T14:17:05.133Z,16.00
2019-04-01T14:19:34.010Z,15.63
2019-04-01T14:22:02.946Z,18.92
2019-04-01T14:24:31.850Z,16.27
2019-04-01T14:27:01.016Z,12.03
2019-04-01T14:29:30.090Z,22.05
2019-04-01T14:31:58.960Z,12.65
2019-04-01T14:34:27.920Z,13.58
2019-04-01T14:36:56.859Z,12.60
2019-04-01T14:39:25.732Z,12.58
2019-04-01T14:41:54.677Z,12.80
2019-04-01T14:44:24.108Z,11.28
2019-04-01T14:46:52.963Z,12.60
2019-04-01T14:49:21.851Z,7.28
2019-04-01T14:51:50.782Z,11.55
2019-04-01T14:54:20.801Z,14.40
2019-04-01T14:56:49.892Z,16.90
2019-04-01T14:59:18.820Z,15.38
2019-04-01T15:01:47.671Z,18.32
2019-04-01T15:04:16.563Z,13.60
2019-04-01T15:06:45.549Z,13.53
2019-04-01T15:09:14.450Z,18.40
2019-04-01T15:11:43.341Z,19.62
2019-04-01T15:14:12.352Z,26.00
2019-04-01T15:16:41.968Z,25.08
2019-04-01T15:19:12.989Z,16.42
2019-04-01T15:21:42.321Z,19.67
2019-04-01T15:24:11.203Z,25.00
2019-04-01T15:26:40.110Z,23.47
2019-04-01T15:29:09.029Z,34.53
2019-04-01T15:31:37.891Z,25.68
2019-04-01T15:34:09.113Z,26.48
2019-04-01T15:36:37.340Z,20.77
2019-04-01T15:39:08.483Z,27.90
2019-04-01T15:41:37.374Z,21.45
2019-04-01T15:44:06.455Z,24.57
2019-04-01T15:46:36.355Z,29.05
2019-04-01T15:49:06.668Z,21.80
2019-04-01T15:51:36.101Z,34.38
2019-04-01T15:54:05.981Z,25.27
2019-04-01T15:56:34.868Z,29.15
2019-04-01T15:59:04.386Z,35.40
2019-04-01T16:01:33.246Z,23.40
2019-04-01T16:04:02.135Z,23.98
2019-04-01T16:06:31.212Z,32.90
2019-04-01T16:09:00.531Z,25.05
2019-04-01T16:11:29.414Z,25.97
2019-04-01T16:13:58.357Z,25.02
2019-04-01T16:16:27.237Z,27.73
2019-04-01T16:18:56.115Z,21.85
2019-04-01T16:21:25.065Z,22.52
2019-04-01T16:23:53.936Z,22.73
2019-04-01T16:26:22.815Z,24.75
2019-04-01T16:28:51.755Z,38.40
2019-04-01T16:31:20.634Z,31.93
2019-04-01T16:33:49.574Z,21.00
2019-04-01T16:36:18.556Z,21.95
2019-04-01T16:38:47.475Z,19.70
2019-04-01T16:41:16.683Z,23.35
2019-04-01T16:43:46.409Z,29.60
2019-04-01T16:46:15.814Z,18.77
2019-04-01T16:48:46.443Z,24.25
2019-04-01T16:51:15.465Z,21.80
2019-04-01T16:53:44.618Z,18.20
2019-04-01T16:56:13.499Z,14.80
2019-04-01T16:58:42.387Z,18.25
2019-04-01T17:01:11.506Z,18.07
2019-04-01T17:03:40.404Z,26.48
2019-04-01T17:06:09.281Z,13.58
2019-04-01T17:08:39.091Z,15.55
2019-04-01T17:11:08.246Z,25.20
2019-04-01T17:13:37.120Z,22.90
2019-04-01T17:16:06.425Z,19.55
2019-04-01T17:18:36.974Z,21.62
2019-04-01T17:21:05.845Z,21.60
2019-04-01T17:23:34.736Z,16.75
2019-04-01T17:26:03.779Z,17.20
2019-04-01T17:28:32.693Z,15.00
2019-04-01T17:31:01.607Z,13.93
2019-04-01T17:33:30.526Z,14.70
2019-04-01T17:35:59.396Z,14.87
2019-04-01T17:38:28.343Z,24.80
2019-04-01T17:40:57.213Z,19.42
2019-04-01T17:43:26.073Z,17.75
2019-04-01T17:45:55.020Z,14.38
2019-04-01T17:48:23.913Z,22.58
2019-04-01T17:50:52.806Z,28.15
2019-04-01T17:53:22.294Z,20.45
2019-04-01T17:55:51.422Z,23.62
2019-04-01T17:58:20.659Z,20.40
2019-04-01T18:00:51.159Z,19.45
2019-04-01T18:03:20.056Z,15.95
2019-04-01T18:05:48.938Z,19.17
2019-04-01T18:08:20.297Z,21.90
2019-04-01T18:10:49.640Z,15.20
2019-04-01T18:13:18.531Z,17.67
2019-04-01T18:15:47.471Z,16.48
2019-04-01T18:18:26.828Z,19.60
2019-04-01T18:20:46.878Z,14.75
2019-04-01T18:23:15.836Z,19.10
2019-04-01T18:25:44.786Z,26.42
2019-04-01T18:28:13.707Z,25.05
2019-04-01T18:30:42.650Z,19.57
2019-04-01T18:33:11.553Z,23.90
2019-04-01T18:35:40.433Z,27.37
2019-04-01T18:38:09.408Z,28.45
2019-04-01T18:40:38.263Z,17.87
2019-04-01T18:43:07.159Z,19.27
2019-04-01T18:45:36.127Z,25.12
2019-04-01T18:48:05.111Z,26.97
2019-04-01T18:50:33.976Z,20.97
2019-04-01T18:53:02.917Z,26.73
2019-04-01T18:55:31.831Z,20.65
2019-04-01T18:58:00.817Z,23.12
2019-04-01T19:00:29.686Z,18.23
2019-04-01T19:02:58.558Z,18.20
2019-04-01T19:05:27.477Z,14.85
2019-04-01T19:07:56.422Z,21.57
2019-04-01T19:10:25.328Z,19.95
2019-04-01T19:13:05.258Z,19.90
2019-04-01T19:15:25.615Z,18.92
2019-04-01T19:17:55.342Z,15.35
2019-04-01T19:20:24.231Z,15.48
2019-04-01T19:22:53.174Z,20.20
2019-04-01T19:25:23.391Z,31.27
2019-04-01T19:27:52.589Z,23.40
2019-04-01T19:30:21.706Z,20.17
2019-04-01T19:32:50.589Z,21.17
2019-04-01T19:35:19.517Z,22.52
2019-04-01T19:37:49.628Z,27.05
2019-04-01T19:40:20.563Z,20.45
2019-04-01T19:42:49.464Z,17.40
2019-04-01T19:45:18.926Z,15.60
2019-04-01T19:47:47.819Z,17.27
2019-04-01T19:50:18.539Z,21.70
2019-04-01T19:52:47.561Z,24.10
2019-04-01T19:55:16.459Z,18.75
2019-04-01T19:57:45.343Z,17.35
2019-04-01T20:00:27.114Z,24.37
2019-04-01T20:02:45.279Z,17.98
2019-04-01T20:05:14.157Z,22.85
2019-04-01T20:07:44.178Z,27.95
2019-04-01T20:10:13.795Z,20.45
2019-04-01T20:12:42.678Z,24.72
2019-04-01T20:15:12.578Z,22.30
2019-04-01T20:17:41.774Z,27.75
2019-04-01T20:20:14.377Z,35.30
2019-04-01T20:22:42.462Z,28.10
2019-04-01T20:25:12.240Z,29.20
2019-04-01T20:27:41.540Z,29.27
2019-04-01T20:30:12.411Z,26.75
2019-04-01T20:32:41.369Z,40.17
2019-04-01T20:35:22.755Z,28.38
2019-04-01T20:37:44.488Z,44.40
2019-04-01T20:40:17.398Z,30.92
2019-04-01T20:42:46.588Z,31.97
2019-04-01T20:45:17.315Z,22.70
2019-04-01T20:47:46.332Z,37.25
2019-04-01T20:51:19.185Z,39.20
2019-04-01T20:53:03.278Z,36.58
2019-04-01T20:55:32.367Z,42.80
2019-04-01T20:58:02.984Z,32.53
2019-04-01T21:00:31.871Z,36.00
2019-04-01T21:03:01.263Z,38.58
2019-04-01T21:05:30.978Z,33.50
2019-04-01T21:08:02.015Z,40.75
2019-04-01T21:10:30.639Z,28.50
2019-04-01T21:13:00.379Z,29.25
2019-04-01T21:15:30.825Z,39.35
2019-04-01T21:18:00.069Z,25.30
2019-04-01T21:20:36.294Z,30.40
2019-04-01T21:23:00.560Z,39.40
2019-04-01T21:25:30.281Z,35.90
2019-04-01T21:28:00.249Z,29.95
2019-04-01T21:30:29.660Z,35.55
2019-04-01T21:32:58.585Z,39.23
2019-04-01T21:35:27.817Z,29.87
2019-04-01T21:37:56.926Z,21.93
2019-04-01T21:40:27.951Z,30.97
2019-04-01T21:42:57.132Z,25.82
2019-04-01T21:45:26.464Z,23.27
2019-04-01T21:47:55.533Z,24.10
2019-04-01T21:50:24.826Z,25.70
2019-04-01T21:52:53.789Z,19.02
2019-04-01T21:55:25.236Z,22.25
2019-04-01T21:57:53.587Z,18.52
2019-04-01T22:00:26.881Z,16.40
2019-04-01T22:02:55.767Z,19.60
2019-04-01T22:05:24.879Z,19.87
2019-04-01T22:07:54.668Z,22.80
2019-04-01T22:10:23.588Z,18.98
2019-04-01T22:12:52.894Z,17.62
2019-04-01T22:15:22.198Z,19.70
2019-04-01T22:17:52.143Z,21.35
2019-04-01T22:20:21.413Z,22.75
2019-04-01T22:22:50.686Z,25.75
2019-04-01T22:25:21.238Z,22.10
2019-04-01T22:27:50.279Z,20.95
2019-04-01T22:30:19.388Z,23.10
2019-04-01T22:32:49.386Z,20.00
2019-04-01T22:35:18.401Z,18.27
2019-04-01T22:37:47.267Z,19.52
2019-04-01T22:40:22.210Z,16.30
2019-04-01T22:42:51.422Z,14.93
2019-04-01T22:45:26.533Z,15.20
2019-04-01T22:47:58.373Z,19.60
2019-04-01T22:50:30.016Z,20.10
2019-04-01T22:53:01.649Z,17.62
2019-04-01T22:55:30.632Z,21.93
2019-04-01T22:57:59.592Z,21.77
2019-04-01T23:00:28.469Z,24.63
2019-04-01T23:02:57.420Z,21.42
2019-04-01T23:05:26.359Z,22.05
2019-04-01T23:07:55.305Z,27.87
2019-04-01T23:10:24.182Z,20.57
2019-04-01T23:12:53.059Z,26.00
2019-04-01T23:15:22.006Z,26.10
2019-04-01T23:17:50.890Z,29.00
2019-04-01T23:20:19.768Z,24.72
2019-04-01T23:22:48.699Z,22.48
2019-04-01T23:25:17.586Z,15.48
2019-04-01T23:27:46.525Z,19.87
2019-04-01T23:30:15.514Z,25.55
2019-04-01T23:32:45.524Z,20.48
2019-04-01T23:35:15.791Z,18.05
2019-04-01T23:37:44.704Z,19.82
2019-04-01T23:40:13.601Z,24.30
2019-04-01T23:42:42.924Z,16.48
2019-04-01T23:45:11.898Z,21.75
2019-04-01T23:47:40.766Z,18.42
2019-04-01T23:50:10.229Z,17.92
2019-04-01T23:52:39.183Z,15.03
2019-04-01T23:55:08.564Z,19.07
2019-04-01T23:57:37.551Z,21.07
